sensor_id;sensor_type;location;lat;lon;timestamp;P1;durP1;ratioP1;P2;durP2;ratioP2
47259;SDS011;32999;52.412;4.890;2023-09-08T00:00:26;5.78;;;4.60;;
47259;SDS011;32999;52.412;4.890;2023-09-08T00:05:27;6.80;;;5.18;;
47259;SDS011;32999;52.412;4.890;2023-09-08T00:10:30;5.93;;;5.03;;
47259;SDS011;32999;52.412;4.890;2023-09-08T00:15:33;6.53;;;5.10;;
47259;SDS011;32999;52.412;4.890;2023-09-08T00:20:34;7.65;;;5.18;;
47259;SDS011;32999;52.412;4.890;2023-09-08T00:25:37;7.28;;;5.32;;
47259;SDS011;32999;52.412;4.890;2023-09-08T00:30:39;6.25;;;4.85;;
47259;SDS011;32999;52.412;4.890;2023-09-08T00:35:43;6.40;;;4.97;;
47259;SDS011;32999;52.412;4.890;2023-09-08T00:40:46;6.93;;;5.50;;
47259;SDS011;32999;52.412;4.890;2023-09-08T00:45:48;5.65;;;4.97;;
47259;SDS011;32999;52.412;4.890;2023-09-08T00:50:49;11.55;;;5.22;;
47259;SDS011;32999;52.412;4.890;2023-09-08T00:55:52;10.75;;;5.90;;
47259;SDS011;32999;52.412;4.890;2023-09-08T01:00:54;7.40;;;5.70;;
47259;SDS011;32999;52.412;4.890;2023-09-08T01:05:57;7.57;;;5.50;;
47259;SDS011;32999;52.412;4.890;2023-09-08T01:11:00;7.47;;;6.00;;
47259;SDS011;32999;52.412;4.890;2023-09-08T01:16:02;7.03;;;5.60;;
47259;SDS011;32999;52.412;4.890;2023-09-08T01:26:31;9.23;;;6.82;;
47259;SDS011;32999;52.412;4.890;2023-09-08T01:31:35;11.65;;;6.43;;
47259;SDS011;32999;52.412;4.890;2023-09-08T01:36:37;8.98;;;7.00;;
47259;SDS011;32999;52.412;4.890;2023-09-08T01:41:40;9.35;;;6.40;;
47259;SDS011;32999;52.412;4.890;2023-09-08T01:46:41;9.75;;;6.65;;
47259;SDS011;32999;52.412;4.890;2023-09-08T01:51:43;10.88;;;6.18;;
47259;SDS011;32999;52.412;4.890;2023-09-08T01:56:46;8.02;;;6.88;;
47259;SDS011;32999;52.412;4.890;2023-09-08T02:01:47;12.05;;;7.45;;
47259;SDS011;32999;52.412;4.890;2023-09-08T02:06:48;11.82;;;6.93;;
47259;SDS011;32999;52.412;4.890;2023-09-08T02:11:51;7.68;;;6.88;;
47259;SDS011;32999;52.412;4.890;2023-09-08T02:16:53;7.93;;;6.30;;
47259;SDS011;32999;52.412;4.890;2023-09-08T02:21:54;10.50;;;7.22;;
47259;SDS011;32999;52.412;4.890;2023-09-08T02:26:57;8.32;;;6.97;;
47259;SDS011;32999;52.412;4.890;2023-09-08T02:31:58;9.32;;;6.70;;
47259;SDS011;32999;52.412;4.890;2023-09-08T02:37:00;8.00;;;6.30;;
47259;SDS011;32999;52.412;4.890;2023-09-08T02:42:03;8.38;;;6.45;;
47259;SDS011;32999;52.412;4.890;2023-09-08T02:47:04;9.53;;;7.20;;
47259;SDS011;32999;52.412;4.890;2023-09-08T02:52:06;12.98;;;6.95;;
47259;SDS011;32999;52.412;4.890;2023-09-08T02:57:09;10.68;;;7.57;;
47259;SDS011;32999;52.412;4.890;2023-09-08T03:02:11;10.43;;;7.93;;
47259;SDS011;32999;52.412;4.890;2023-09-08T03:07:12;12.02;;;7.00;;
47259;SDS011;32999;52.412;4.890;2023-09-08T03:12:15;10.20;;;8.02;;
47259;SDS011;32999;52.412;4.890;2023-09-08T03:17:16;11.73;;;7.70;;
47259;SDS011;32999;52.412;4.890;2023-09-08T03:22:18;10.55;;;8.18;;
47259;SDS011;32999;52.412;4.890;2023-09-08T03:27:21;9.82;;;7.63;;
47259;SDS011;32999;52.412;4.890;2023-09-08T03:32:22;9.45;;;7.55;;
47259;SDS011;32999;52.412;4.890;2023-09-08T03:37:25;9.35;;;7.75;;
47259;SDS011;32999;52.412;4.890;2023-09-08T03:42:28;10.60;;;7.75;;
47259;SDS011;32999;52.412;4.890;2023-09-08T03:47:30;12.50;;;8.30;;
47259;SDS011;32999;52.412;4.890;2023-09-08T03:52:31;8.25;;;7.10;;
47259;SDS011;32999;52.412;4.890;2023-09-08T03:57:34;9.10;;;7.47;;
47259;SDS011;32999;52.412;4.890;2023-09-08T04:02:35;10.10;;;7.85;;
47259;SDS011;32999;52.412;4.890;2023-09-08T04:07:37;9.27;;;7.68;;
47259;SDS011;32999;52.412;4.890;2023-09-08T04:12:40;10.52;;;8.68;;
47259;SDS011;32999;52.412;4.890;2023-09-08T04:17:41;9.82;;;8.05;;
47259;SDS011;32999;52.412;4.890;2023-09-08T04:22:43;10.38;;;8.20;;
47259;SDS011;32999;52.412;4.890;2023-09-08T04:27:46;10.05;;;8.45;;
47259;SDS011;32999;52.412;4.890;2023-09-08T04:32:47;11.68;;;8.93;;
47259;SDS011;32999;52.412;4.890;2023-09-08T04:37:49;15.25;;;10.38;;
47259;SDS011;32999;52.412;4.890;2023-09-08T04:42:51;12.80;;;9.60;;
47259;SDS011;32999;52.412;4.890;2023-09-08T04:47:53;15.55;;;10.05;;
47259;SDS011;32999;52.412;4.890;2023-09-08T04:52:54;10.85;;;9.18;;
47259;SDS011;32999;52.412;4.890;2023-09-08T04:57:57;11.85;;;8.90;;
47259;SDS011;32999;52.412;4.890;2023-09-08T05:02:59;15.68;;;9.77;;
47259;SDS011;32999;52.412;4.890;2023-09-08T05:08:00;10.65;;;8.68;;
47259;SDS011;32999;52.412;4.890;2023-09-08T05:13:03;14.32;;;9.45;;
47259;SDS011;32999;52.412;4.890;2023-09-08T05:18:05;12.90;;;9.90;;
47259;SDS011;32999;52.412;4.890;2023-09-08T05:23:06;12.40;;;9.93;;
47259;SDS011;32999;52.412;4.890;2023-09-08T05:28:09;13.80;;;9.85;;
47259;SDS011;32999;52.412;4.890;2023-09-08T05:33:10;12.30;;;9.88;;
47259;SDS011;32999;52.412;4.890;2023-09-08T05:38:12;16.05;;;10.38;;
47259;SDS011;32999;52.412;4.890;2023-09-08T05:43:14;12.52;;;9.65;;
47259;SDS011;32999;52.412;4.890;2023-09-08T05:48:16;11.38;;;9.15;;
47259;SDS011;32999;52.412;4.890;2023-09-08T05:53:17;11.98;;;9.45;;
47259;SDS011;32999;52.412;4.890;2023-09-08T05:58:20;17.73;;;10.80;;
47259;SDS011;32999;52.412;4.890;2023-09-08T06:03:21;13.43;;;10.18;;
47259;SDS011;32999;52.412;4.890;2023-09-08T06:08:23;12.30;;;9.93;;
47259;SDS011;32999;52.412;4.890;2023-09-08T06:13:26;20.33;;;10.23;;
47259;SDS011;32999;52.412;4.890;2023-09-08T06:18:28;22.67;;;11.97;;
47259;SDS011;32999;52.412;4.890;2023-09-08T06:23:29;14.90;;;10.57;;
47259;SDS011;32999;52.412;4.890;2023-09-08T06:28:32;12.30;;;10.35;;
47259;SDS011;32999;52.412;4.890;2023-09-08T06:33:34;11.32;;;9.75;;
47259;SDS011;32999;52.412;4.890;2023-09-08T06:38:35;10.80;;;9.35;;
47259;SDS011;32999;52.412;4.890;2023-09-08T06:43:38;13.05;;;9.77;;
47259;SDS011;32999;52.412;4.890;2023-09-08T06:48:39;14.88;;;10.15;;
47259;SDS011;32999;52.412;4.890;2023-09-08T06:53:42;16.02;;;10.35;;
47259;SDS011;32999;52.412;4.890;2023-09-08T06:58:47;12.50;;;10.25;;
47259;SDS011;32999;52.412;4.890;2023-09-08T07:03:49;12.88;;;11.10;;
47259;SDS011;32999;52.412;4.890;2023-09-08T07:08:50;17.58;;;10.50;;
47259;SDS011;32999;52.412;4.890;2023-09-08T07:13:53;17.45;;;10.32;;
47259;SDS011;32999;52.412;4.890;2023-09-08T07:18:55;12.27;;;10.23;;
47259;SDS011;32999;52.412;4.890;2023-09-08T07:23:56;18.65;;;9.60;;
47259;SDS011;32999;52.412;4.890;2023-09-08T07:28:59;12.60;;;10.15;;
47259;SDS011;32999;52.412;4.890;2023-09-08T07:34:01;18.13;;;10.80;;
47259;SDS011;32999;52.412;4.890;2023-09-08T07:39:02;15.35;;;11.02;;
47259;SDS011;32999;52.412;4.890;2023-09-08T07:44:05;14.70;;;11.10;;
47259;SDS011;32999;52.412;4.890;2023-09-08T07:49:07;14.40;;;10.20;;
47259;SDS011;32999;52.412;4.890;2023-09-08T07:54:08;13.88;;;10.90;;
47259;SDS011;32999;52.412;4.890;2023-09-08T07:59:12;15.63;;;12.43;;
47259;SDS011;32999;52.412;4.890;2023-09-08T08:04:14;14.95;;;10.40;;
47259;SDS011;32999;52.412;4.890;2023-09-08T08:09:16;13.20;;;10.55;;
47259;SDS011;32999;52.412;4.890;2023-09-08T08:14:18;21.42;;;10.98;;
47259;SDS011;32999;52.412;4.890;2023-09-08T08:19:20;14.23;;;11.32;;
47259;SDS011;32999;52.412;4.890;2023-09-08T08:24:21;14.32;;;10.98;;
47259;SDS011;32999;52.412;4.890;2023-09-08T08:29:24;13.88;;;11.13;;
47259;SDS011;32999;52.412;4.890;2023-09-08T08:34:26;15.50;;;12.02;;
47259;SDS011;32999;52.412;4.890;2023-09-08T08:39:27;18.17;;;13.43;;
47259;SDS011;32999;52.412;4.890;2023-09-08T08:44:30;15.30;;;11.95;;
47259;SDS011;32999;52.412;4.890;2023-09-08T08:49:32;16.48;;;11.77;;
47259;SDS011;32999;52.412;4.890;2023-09-08T08:54:34;16.38;;;12.18;;
47259;SDS011;32999;52.412;4.890;2023-09-08T08:59:37;19.15;;;14.43;;
47259;SDS011;32999;52.412;4.890;2023-09-08T09:04:41;15.55;;;13.15;;
47259;SDS011;32999;52.412;4.890;2023-09-08T09:09:42;14.05;;;11.25;;
47259;SDS011;32999;52.412;4.890;2023-09-08T09:14:46;13.57;;;10.40;;
47259;SDS011;32999;52.412;4.890;2023-09-08T09:19:48;15.15;;;10.88;;
47259;SDS011;32999;52.412;4.890;2023-09-08T09:24:50;14.80;;;9.70;;
47259;SDS011;32999;52.412;4.890;2023-09-08T09:29:54;15.52;;;10.13;;
47259;SDS011;32999;52.412;4.890;2023-09-08T09:34:56;12.57;;;9.55;;
47259;SDS011;32999;52.412;4.890;2023-09-08T09:40:01;11.10;;;8.80;;
47259;SDS011;32999;52.412;4.890;2023-09-08T09:45:07;11.68;;;8.05;;
47259;SDS011;32999;52.412;4.890;2023-09-08T09:50:09;10.15;;;7.85;;
47259;SDS011;32999;52.412;4.890;2023-09-08T09:55:12;10.73;;;8.98;;
47259;SDS011;32999;52.412;4.890;2023-09-08T10:00:16;9.15;;;7.32;;
47259;SDS011;32999;52.412;4.890;2023-09-08T10:05:17;13.98;;;8.90;;
47259;SDS011;32999;52.412;4.890;2023-09-08T10:10:20;22.33;;;8.33;;
47259;SDS011;32999;52.412;4.890;2023-09-08T10:15:23;13.30;;;8.25;;
47259;SDS011;32999;52.412;4.890;2023-09-08T10:20:26;12.68;;;9.00;;
47259;SDS011;32999;52.412;4.890;2023-09-08T10:25:28;9.73;;;8.57;;
47259;SDS011;32999;52.412;4.890;2023-09-08T10:30:33;14.32;;;8.57;;
47259;SDS011;32999;52.412;4.890;2023-09-08T10:35:35;12.68;;;8.93;;
47259;SDS011;32999;52.412;4.890;2023-09-08T10:40:37;13.17;;;8.87;;
47259;SDS011;32999;52.412;4.890;2023-09-08T10:45:40;12.05;;;7.43;;
47259;SDS011;32999;52.412;4.890;2023-09-08T10:50:42;11.18;;;7.40;;
47259;SDS011;32999;52.412;4.890;2023-09-08T10:55:45;6.90;;;6.30;;
47259;SDS011;32999;52.412;4.890;2023-09-08T11:00:51;8.73;;;7.20;;
47259;SDS011;32999;52.412;4.890;2023-09-08T11:05:57;12.88;;;6.82;;
47259;SDS011;32999;52.412;4.890;2023-09-08T11:10:58;7.82;;;5.38;;
47259;SDS011;32999;52.412;4.890;2023-09-08T11:16:02;7.85;;;5.03;;
47259;SDS011;32999;52.412;4.890;2023-09-08T11:21:06;5.57;;;5.05;;
47259;SDS011;32999;52.412;4.890;2023-09-08T11:26:08;4.72;;;3.97;;
47259;SDS011;32999;52.412;4.890;2023-09-08T11:31:12;6.68;;;4.47;;
47259;SDS011;32999;52.412;4.890;2023-09-08T11:36:14;7.07;;;4.38;;
47259;SDS011;32999;52.412;4.890;2023-09-08T11:41:16;4.88;;;3.97;;
47259;SDS011;32999;52.412;4.890;2023-09-08T11:46:19;5.72;;;3.83;;
47259;SDS011;32999;52.412;4.890;2023-09-08T11:51:22;7.47;;;3.85;;
47259;SDS011;32999;52.412;4.890;2023-09-08T11:56:23;7.75;;;4.80;;
47259;SDS011;32999;52.412;4.890;2023-09-08T12:01:26;6.20;;;3.60;;
47259;SDS011;32999;52.412;4.890;2023-09-08T12:06:28;6.55;;;3.90;;
47259;SDS011;32999;52.412;4.890;2023-09-08T12:11:32;4.43;;;4.03;;
47259;SDS011;32999;52.412;4.890;2023-09-08T12:16:36;8.05;;;4.80;;
47259;SDS011;32999;52.412;4.890;2023-09-08T12:21:53;6.00;;;4.40;;
47259;SDS011;32999;52.412;4.890;2023-09-08T12:27:09;8.00;;;5.28;;
47259;SDS011;32999;52.412;4.890;2023-09-08T12:32:12;6.65;;;3.90;;
47259;SDS011;32999;52.412;4.890;2023-09-08T12:37:13;5.65;;;4.10;;
47259;SDS011;32999;52.412;4.890;2023-09-08T12:47:17;8.25;;;5.45;;
47259;SDS011;32999;52.412;4.890;2023-09-08T12:52:19;9.85;;;4.88;;
47259;SDS011;32999;52.412;4.890;2023-09-08T12:57:20;8.32;;;5.63;;
47259;SDS011;32999;52.412;4.890;2023-09-08T13:02:23;10.32;;;5.78;;
47259;SDS011;32999;52.412;4.890;2023-09-08T13:07:24;8.57;;;5.60;;
47259;SDS011;32999;52.412;4.890;2023-09-08T13:12:26;5.35;;;3.85;;
47259;SDS011;32999;52.412;4.890;2023-09-08T13:17:29;6.93;;;4.40;;
47259;SDS011;32999;52.412;4.890;2023-09-08T13:22:31;6.60;;;4.10;;
47259;SDS011;32999;52.412;4.890;2023-09-08T13:27:32;7.47;;;4.53;;
47259;SDS011;32999;52.412;4.890;2023-09-08T13:32:35;6.00;;;4.47;;
47259;SDS011;32999;52.412;4.890;2023-09-08T13:37:37;12.05;;;6.75;;
47259;SDS011;32999;52.412;4.890;2023-09-08T13:42:38;9.63;;;6.18;;
47259;SDS011;32999;52.412;4.890;2023-09-08T13:47:41;6.83;;;6.13;;
47259;SDS011;32999;52.412;4.890;2023-09-08T13:52:43;7.35;;;5.68;;
47259;SDS011;32999;52.412;4.890;2023-09-08T13:57:44;7.70;;;6.17;;
47259;SDS011;32999;52.412;4.890;2023-09-08T14:02:48;8.23;;;5.28;;
47259;SDS011;32999;52.412;4.890;2023-09-08T14:07:49;15.57;;;6.68;;
47259;SDS011;32999;52.412;4.890;2023-09-08T14:12:51;9.77;;;5.50;;
47259;SDS011;32999;52.412;4.890;2023-09-08T14:17:53;8.13;;;5.68;;
47259;SDS011;32999;52.412;4.890;2023-09-08T14:22:55;6.85;;;5.43;;
47259;SDS011;32999;52.412;4.890;2023-09-08T14:27:56;8.73;;;6.22;;
47259;SDS011;32999;52.412;4.890;2023-09-08T14:32:59;6.28;;;5.57;;
47259;SDS011;32999;52.412;4.890;2023-09-08T14:38:00;10.73;;;5.80;;
47259;SDS011;32999;52.412;4.890;2023-09-08T14:43:03;9.07;;;6.03;;
47259;SDS011;32999;52.412;4.890;2023-09-08T14:48:06;6.70;;;5.00;;
47259;SDS011;32999;52.412;4.890;2023-09-08T14:53:07;7.45;;;5.20;;
47259;SDS011;32999;52.412;4.890;2023-09-08T14:58:09;5.50;;;4.15;;
47259;SDS011;32999;52.412;4.890;2023-09-08T15:03:13;6.03;;;4.15;;
47259;SDS011;32999;52.412;4.890;2023-09-08T15:08:14;4.72;;;3.95;;
47259;SDS011;32999;52.412;4.890;2023-09-08T15:13:15;5.55;;;3.53;;
47259;SDS011;32999;52.412;4.890;2023-09-08T15:18:19;8.30;;;3.67;;
47259;SDS011;32999;52.412;4.890;2023-09-08T15:23:23;4.22;;;3.72;;
47259;SDS011;32999;52.412;4.890;2023-09-08T15:28:25;4.47;;;3.40;;
47259;SDS011;32999;52.412;4.890;2023-09-08T15:33:43;4.43;;;2.97;;
47259;SDS011;32999;52.412;4.890;2023-09-08T15:38:45;4.40;;;3.80;;
47259;SDS011;32999;52.412;4.890;2023-09-08T15:43:51;7.27;;;5.00;;
47259;SDS011;32999;52.412;4.890;2023-09-08T15:49:05;9.88;;;4.57;;
47259;SDS011;32999;52.412;4.890;2023-09-08T15:54:07;8.32;;;4.50;;
47259;SDS011;32999;52.412;4.890;2023-09-08T15:59:08;5.53;;;4.25;;
47259;SDS011;32999;52.412;4.890;2023-09-08T16:04:11;6.93;;;3.65;;
47259;SDS011;32999;52.412;4.890;2023-09-08T16:09:14;8.20;;;5.57;;
47259;SDS011;32999;52.412;4.890;2023-09-08T16:14:15;7.25;;;4.38;;
47259;SDS011;32999;52.412;4.890;2023-09-08T16:42:27;13.02;;;7.20;;
47259;SDS011;32999;52.412;4.890;2023-09-08T16:53:32;7.88;;;5.53;;
47259;SDS011;32999;52.412;4.890;2023-09-08T16:58:38;7.68;;;5.13;;
47259;SDS011;32999;52.412;4.890;2023-09-08T17:03:42;4.93;;;4.40;;
47259;SDS011;32999;52.412;4.890;2023-09-08T17:08:44;6.53;;;3.97;;
47259;SDS011;32999;52.412;4.890;2023-09-08T17:13:47;7.53;;;5.63;;
47259;SDS011;32999;52.412;4.890;2023-09-08T17:18:48;11.80;;;7.82;;
47259;SDS011;32999;52.412;4.890;2023-09-08T17:23:50;7.95;;;5.45;;
47259;SDS011;32999;52.412;4.890;2023-09-08T17:28:53;6.82;;;5.80;;
47259;SDS011;32999;52.412;4.890;2023-09-08T17:33:55;10.68;;;5.07;;
47259;SDS011;32999;52.412;4.890;2023-09-08T17:38:56;4.85;;;4.35;;
47259;SDS011;32999;52.412;4.890;2023-09-08T17:44:00;7.10;;;5.18;;
47259;SDS011;32999;52.412;4.890;2023-09-08T17:49:04;8.43;;;4.50;;
47259;SDS011;32999;52.412;4.890;2023-09-08T17:54:06;6.40;;;4.95;;
47259;SDS011;32999;52.412;4.890;2023-09-08T17:59:11;7.25;;;4.70;;
47259;SDS011;32999;52.412;4.890;2023-09-08T18:04:13;6.95;;;5.45;;
47259;SDS011;32999;52.412;4.890;2023-09-08T18:09:17;12.98;;;8.32;;
47259;SDS011;32999;52.412;4.890;2023-09-08T18:14:23;12.50;;;8.57;;
47259;SDS011;32999;52.412;4.890;2023-09-08T18:19:30;9.63;;;7.03;;
47259;SDS011;32999;52.412;4.890;2023-09-08T18:24:44;8.15;;;6.47;;
47259;SDS011;32999;52.412;4.890;2023-09-08T18:30:10;8.93;;;7.55;;
47259;SDS011;32999;52.412;4.890;2023-09-08T18:35:21;9.65;;;7.38;;
47259;SDS011;32999;52.412;4.890;2023-09-08T18:40:26;12.68;;;7.90;;
47259;SDS011;32999;52.412;4.890;2023-09-08T18:45:29;11.40;;;7.55;;
47259;SDS011;32999;52.412;4.890;2023-09-08T18:50:34;8.98;;;7.57;;
47259;SDS011;32999;52.412;4.890;2023-09-08T18:55:35;9.38;;;7.72;;
47259;SDS011;32999;52.412;4.890;2023-09-08T19:00:42;11.73;;;9.00;;
47259;SDS011;32999;52.412;4.890;2023-09-08T19:05:44;13.82;;;10.63;;
47259;SDS011;32999;52.412;4.890;2023-09-08T19:10:46;10.93;;;8.93;;
47259;SDS011;32999;52.412;4.890;2023-09-08T19:15:49;13.52;;;9.63;;
47259;SDS011;32999;52.412;4.890;2023-09-08T19:20:51;9.68;;;7.55;;
47259;SDS011;32999;52.412;4.890;2023-09-08T19:25:52;9.05;;;8.15;;
47259;SDS011;32999;52.412;4.890;2023-09-08T19:30:55;14.07;;;8.43;;
47259;SDS011;32999;52.412;4.890;2023-09-08T19:35:57;8.95;;;7.10;;
47259;SDS011;32999;52.412;4.890;2023-09-08T19:41:01;9.65;;;7.57;;
47259;SDS011;32999;52.412;4.890;2023-09-08T19:46:06;16.20;;;11.75;;
47259;SDS011;32999;52.412;4.890;2023-09-08T19:51:07;13.82;;;11.32;;
47259;SDS011;32999;52.412;4.890;2023-09-08T19:56:09;13.77;;;11.18;;
47259;SDS011;32999;52.412;4.890;2023-09-08T20:01:12;14.30;;;12.25;;
47259;SDS011;32999;52.412;4.890;2023-09-08T20:06:17;14.05;;;11.27;;
47259;SDS011;32999;52.412;4.890;2023-09-08T20:11:19;13.88;;;11.90;;
47259;SDS011;32999;52.412;4.890;2023-09-08T20:16:46;17.10;;;12.77;;
47259;SDS011;32999;52.412;4.890;2023-09-08T20:21:47;17.95;;;13.45;;
47259;SDS011;32999;52.412;4.890;2023-09-08T20:26:56;26.83;;;19.10;;
47259;SDS011;32999;52.412;4.890;2023-09-08T20:32:32;21.08;;;15.88;;
47259;SDS011;32999;52.412;4.890;2023-09-08T20:37:34;16.10;;;12.93;;
47259;SDS011;32999;52.412;4.890;2023-09-08T20:42:36;16.80;;;12.82;;
47259;SDS011;32999;52.412;4.890;2023-09-08T20:47:43;17.83;;;13.93;;
47259;SDS011;32999;52.412;4.890;2023-09-08T20:52:44;17.63;;;13.20;;
47259;SDS011;32999;52.412;4.890;2023-09-08T20:57:45;15.55;;;13.38;;
47259;SDS011;32999;52.412;4.890;2023-09-08T21:02:52;21.75;;;15.13;;
47259;SDS011;32999;52.412;4.890;2023-09-08T21:07:54;21.20;;;17.38;;
47259;SDS011;32999;52.412;4.890;2023-09-08T21:12:55;24.77;;;19.70;;
47259;SDS011;32999;52.412;4.890;2023-09-08T21:17:58;23.98;;;20.65;;
47259;SDS011;32999;52.412;4.890;2023-09-08T21:23:00;26.77;;;21.90;;
47259;SDS011;32999;52.412;4.890;2023-09-08T21:28:03;26.67;;;22.80;;
47259;SDS011;32999;52.412;4.890;2023-09-08T21:33:07;30.23;;;23.58;;
47259;SDS011;32999;52.412;4.890;2023-09-08T21:38:08;32.23;;;24.87;;
47259;SDS011;32999;52.412;4.890;2023-09-08T21:43:10;31.45;;;24.42;;
47259;SDS011;32999;52.412;4.890;2023-09-08T21:48:12;31.15;;;24.35;;
47259;SDS011;32999;52.412;4.890;2023-09-08T21:53:14;32.50;;;25.23;;
47259;SDS011;32999;52.412;4.890;2023-09-08T21:58:16;27.17;;;22.73;;
47259;SDS011;32999;52.412;4.890;2023-09-08T22:03:19;32.40;;;25.52;;
47259;SDS011;32999;52.412;4.890;2023-09-08T22:08:21;32.20;;;25.60;;
47259;SDS011;32999;52.412;4.890;2023-09-08T22:13:22;33.90;;;26.48;;
47259;SDS011;32999;52.412;4.890;2023-09-08T22:18:25;34.38;;;26.58;;
47259;SDS011;32999;52.412;4.890;2023-09-08T22:23:26;33.83;;;25.43;;
47259;SDS011;32999;52.412;4.890;2023-09-08T22:28:28;35.13;;;26.05;;
47259;SDS011;32999;52.412;4.890;2023-09-08T22:33:31;31.55;;;26.83;;
47259;SDS011;32999;52.412;4.890;2023-09-08T22:38:32;32.90;;;26.53;;
47259;SDS011;32999;52.412;4.890;2023-09-08T22:43:34;31.40;;;26.00;;
47259;SDS011;32999;52.412;4.890;2023-09-08T22:48:37;32.75;;;26.05;;
47259;SDS011;32999;52.412;4.890;2023-09-08T22:53:38;35.83;;;27.47;;
47259;SDS011;32999;52.412;4.890;2023-09-08T22:58:40;35.42;;;27.75;;
47259;SDS011;32999;52.412;4.890;2023-09-08T23:03:42;32.80;;;27.92;;
47259;SDS011;32999;52.412;4.890;2023-09-08T23:08:44;34.42;;;28.58;;
47259;SDS011;32999;52.412;4.890;2023-09-08T23:13:45;39.65;;;28.75;;
47259;SDS011;32999;52.412;4.890;2023-09-08T23:18:48;35.60;;;27.55;;
47259;SDS011;32999;52.412;4.890;2023-09-08T23:23:50;36.53;;;27.27;;
47259;SDS011;32999;52.412;4.890;2023-09-08T23:28:51;34.47;;;28.08;;
47259;SDS011;32999;52.412;4.890;2023-09-08T23:33:56;37.63;;;29.58;;
47259;SDS011;32999;52.412;4.890;2023-09-08T23:38:57;37.17;;;28.60;;
47259;SDS011;32999;52.412;4.890;2023-09-08T23:43:59;44.70;;;31.85;;
47259;SDS011;32999;52.412;4.890;2023-09-08T23:49:01;43.85;;;32.95;;
47259;SDS011;32999;52.412;4.890;2023-09-08T23:54:03;46.25;;;35.92;;
47259;SDS011;32999;52.412;4.890;2023-09-08T23:59:05;47.53;;;36.97;;
